Flight Track Log - Related Links

Times and Time Zones

All times are in EDT time to prevent confusion due to time zone crossing. See the ABX921 flight status page for this flight to view local times or setup timezone preferences in your user account.

Time Position Orientation Groundspeed Altitude Reporting Facility
EDT Latitude Longitude Course Direction KTS MPH feet Rate Location/Type
Tue 11:08:06 PM 26.2594 -97.6142 30° Northeast 224 258 2,300  Level Houston Center
Tue 11:09:07 PM 26.3383 -97.6078 North 261 300 4,800 2,268 Climbing Houston Center
Tue 11:09:28 PM 26.3622 -97.6047 North 290 334 5,400 2,951 Climbing Houston Center
Tue 11:10:08 PM 26.4203 -97.5986 North 292 336 7,800 2,673 Climbing Houston Center
Tue 11:11:09 PM 26.5014 -97.5903 North 293 337 9,900 1,623 Climbing Houston Center
Tue 11:12:10 PM 26.5931 -97.5758 North 330 380 11,100 1,721 Climbing Houston Center
Tue 11:13:11 PM 26.6856 -97.5147 31° Northeast 382 440 13,400 2,579 Climbing Houston Center
Tue 11:14:11 PM 26.7922 -97.4475 29° Northeast 407 468 16,300 2,727 Climbing Houston Center
Tue 11:15:12 PM 26.8875 -97.3844 31° Northeast 418 481 18,900 2,361 Climbing Houston Center
Tue 11:16:13 PM 26.9786 -97.3278 29° Northeast 424 488 21,100 2,459 Climbing Houston Center
Tue 11:17:14 PM 27.1069 -97.2444 30° Northeast 439 505 23,900 2,262 Climbing Houston Center
Tue 11:18:15 PM 27.2186 -97.1717 30° Northeast 455 524 25,700 1,835 Climbing Houston Center
Tue 11:19:15 PM 27.3344 -97.0967 30° Northeast 473 544 27,600 1,785 Climbing Houston Center
Tue 11:20:16 PM 27.4439 -97.0269 29° Northeast 482 555 29,300 1,574 Climbing Houston Center
Tue 11:21:17 PM 27.5633 -96.9486 30° Northeast 491 565 30,800 1,574 Climbing Houston Center
Tue 11:22:18 PM 27.6847 -96.8703 30° Northeast 499 574 32,500 1,475 Climbing Houston Center
Tue 11:23:19 PM 27.8072 -96.7892 30° Northeast 507 583 33,800 1,328 Climbing Houston Center
Tue 11:24:20 PM 27.9325 -96.7083 30° Northeast 514 592 35,200 1,289 Climbing Houston Center
Tue 11:25:20 PM 28.0583 -96.6250 30° Northeast 522 601 36,400 1,438 Climbing Houston Center
Tue 11:26:21 PM 28.2094 -96.5253 30° Northeast 524 603 38,100 1,279 Climbing Houston Center
Tue 11:27:22 PM 28.3342 -96.4439 30° Northeast 521 600 39,000 393 Climbing Houston Center
Tue 11:28:23 PM 28.4581 -96.3614 30° Northeast 518 596 38,900 -50 Descending Houston Center
Tue 11:29:23 PM 28.5806 -96.2783 31° Northeast 515 593 38,900  Level Houston Center
Tue 11:30:24 PM 28.7025 -96.1983 30° Northeast 511 588 38,900 49 Level Houston Center
Tue 11:31:25 PM 28.8244 -96.1175 30° Northeast 510 587 39,000 49 Climbing Houston Center
Tue 11:32:26 PM 28.9464 -96.0350 31° Northeast 511 588 39,000  Level Houston Center
Tue 11:33:26 PM 29.0797 -95.9433 31° Northeast 516 594 39,000  Level Houston Center
Tue 11:34:27 PM 29.2053 -95.8597 30° Northeast 520 598 39,000  Level Houston Center
Tue 11:35:28 PM 29.3292 -95.7750 31° Northeast 518 596 39,000  Level Houston Center
Tue 11:36:28 PM 29.4536 -95.6908 30° Northeast 517 595 39,000  Level Houston Center
Tue 11:37:29 PM 29.5789 -95.6047 31° Northeast 519 597 39,000  Level Houston Center
Tue 11:38:30 PM 29.7042 -95.5206 30° Northeast 516 594 39,000  Level Houston Center
Tue 11:39:30 PM 29.8297 -95.4358 30° Northeast 514 592 39,000  Level Houston Center
Tue 11:40:31 PM 29.9528 -95.3500 31° Northeast 511 588 39,000  Level Houston Center
Tue 11:41:31 PM 30.0722 -95.2614 33° Northeast 508 585 39,000  Level Houston Center
Tue 11:42:32 PM 30.1908 -95.1694 34° Northeast 510 587 39,000  Level Houston Center
Tue 11:43:33 PM 30.3125 -95.0778 33° Northeast 519 597 39,000  Level Houston Center
Tue 11:44:33 PM 30.4281 -94.9875 34° Northeast 507 583 39,000  Level Houston Center
Tue 11:45:34 PM 30.5381 -94.9022 34° Northeast 511 588 39,000  Level Houston Center
Tue 11:46:34 PM 30.6561 -94.8117 33° Northeast 511 588 39,000  Level Houston Center
Tue 11:47:35 PM 30.7975 -94.7000 34° Northeast 512 589 39,000  Level Houston Center
Tue 11:48:31 PM 30.8925 -94.6272 33° Northeast 511 588 39,000  Level Fort Worth Center
Tue 11:49:31 PM 31.0133 -94.5317 34° Northeast 511 588 39,000  Level Fort Worth Center
Tue 11:50:31 PM 31.1469 -94.4353 32° Northeast 517 595 39,000  Level Fort Worth Center
Tue 11:51:31 PM 31.2556 -94.3467 35° Northeast 522 601 39,000  Level Fort Worth Center
Tue 11:52:31 PM 31.3764 -94.2528 34° Northeast 517 595 39,000  Level Fort Worth Center
Tue 11:53:31 PM 31.4947 -94.1536 36° Northeast 517 595 39,000  Level Fort Worth Center
Tue 11:54:31 PM 31.6092 -94.0544 36° Northeast 517 595 39,000  Level Fort Worth Center
Tue 11:55:31 PM 31.7356 -93.9425 37° Northeast 517 595 39,000  Level Fort Worth Center
Tue 11:56:31 PM 31.8497 -93.8428 37° Northeast 512 589 39,000  Level Fort Worth Center
Tue 11:57:31 PM 31.9533 -93.7458 38° Northeast 512 589 39,000  Level Fort Worth Center
Tue 11:58:31 PM 32.0772 -93.6306 38° Northeast 517 595 39,000  Level Fort Worth Center
Tue 11:59:31 PM 32.1767 -93.5331 40° Northeast 517 595 39,000  Level Fort Worth Center
Wed 12:00:31 AM 32.2903 -93.4275 38° Northeast 517 595 39,000  Level Fort Worth Center
Wed 12:01:31 AM 32.4039 -93.3242 38° Northeast 517 595 39,000  Level Fort Worth Center
Wed 12:02:31 AM 32.5153 -93.2206 38° Northeast 517 595 39,000  Level Fort Worth Center
Wed 12:03:31 AM 32.6386 -93.1061 38° Northeast 517 595 39,000  Level Fort Worth Center
Wed 12:04:31 AM 32.7539 -92.9994 38° Northeast 517 595 39,000  Level Fort Worth Center
Wed 12:06:46 AM 33.0036 -92.7725 37° Northeast 514 592 39,000  Level Memphis Center
Wed 12:07:46 AM 33.1164 -92.6639 39° Northeast 514 592 39,000  Level Memphis Center
Wed 12:08:46 AM 33.2308 -92.5578 38° Northeast 514 592 39,000  Level Memphis Center
Wed 12:09:46 AM 33.3456 -92.4511 38° Northeast 514 592 39,000  Level Memphis Center
Wed 12:10:46 AM 33.4536 -92.3467 39° Northeast 519 597 39,000  Level Memphis Center
Wed 12:11:46 AM 33.5722 -92.2394 37° Northeast 519 597 39,000  Level Memphis Center
Wed 12:12:46 AM 33.6800 -92.1369 38° Northeast 519 597 39,000  Level Memphis Center
Wed 12:13:46 AM 33.7922 -92.0294 39° Northeast 519 597 39,000  Level Memphis Center
Wed 12:14:46 AM 33.9083 -91.9214 38° Northeast 519 597 39,000  Level Memphis Center
Wed 12:15:46 AM 34.0183 -91.8133 39° Northeast 519 597 39,000  Level Memphis Center
Wed 12:16:46 AM 34.1236 -91.7094 39° Northeast 513 590 39,000  Level Memphis Center
Wed 12:17:46 AM 34.2397 -91.5983 38° Northeast 513 590 39,000  Level Memphis Center
Wed 12:18:46 AM 34.3472 -91.4867 41° Northeast 507 583 39,000  Level Memphis Center
Wed 12:19:46 AM 34.4586 -91.3822 38° Northeast 507 583 39,000  Level Memphis Center
Wed 12:20:46 AM 34.5700 -91.2703 40° Northeast 507 583 39,000  Level Memphis Center
Wed 12:21:46 AM 34.6836 -91.1603 39° Northeast 513 590 39,000  Level Memphis Center
Wed 12:22:46 AM 34.7928 -91.0500 40° Northeast 513 590 39,000  Level Memphis Center
Wed 12:23:46 AM 34.8933 -90.9519 39° Northeast 513 590 39,000  Level Memphis Center
Wed 12:24:46 AM 35.0044 -90.8439 39° Northeast 513 590 39,000  Level Memphis Center
Wed 12:25:46 AM 35.1133 -90.7303 40° Northeast 513 590 39,000  Level Memphis Center
Wed 12:26:46 AM 35.2219 -90.6239 39° Northeast 507 583 39,000  Level Memphis Center
Wed 12:27:46 AM 35.3286 -90.5150 40° Northeast 507 583 39,000  Level Memphis Center
Wed 12:28:46 AM 35.4475 -90.3928 40° Northeast 507 583 39,000  Level Memphis Center
Wed 12:29:46 AM 35.5558 -90.2806 40° Northeast 507 583 39,000  Level Memphis Center
Wed 12:30:46 AM 35.6642 -90.1731 39° Northeast 507 583 39,000  Level Memphis Center
Wed 12:31:46 AM 35.7578 -90.0731 41° Northeast 496 571 39,000  Level Memphis Center
Wed 12:32:46 AM 35.8639 -89.9625 40° Northeast 496 571 39,000  Level Memphis Center
Wed 12:33:46 AM 35.9742 -89.8517 39° Northeast 501 577 39,000  Level Memphis Center
Wed 12:34:46 AM 36.0842 -89.7381 40° Northeast 506 582 39,000  Level Memphis Center
Wed 12:35:46 AM 36.1919 -89.6267 40° Northeast 506 582 39,000  Level Memphis Center
Wed 12:36:46 AM 36.2975 -89.5200 39° Northeast 501 577 39,000  Level Memphis Center
Wed 12:37:46 AM 36.4175 -89.3950 40° Northeast 501 577 39,000  Level Memphis Center
Wed 12:38:46 AM 36.5186 -89.2853 41° Northeast 514 592 39,000  Level Memphis Center
Wed 12:39:46 AM 36.6364 -89.1647 39° Northeast 509 586 39,000  Level Memphis Center
Wed 12:40:46 AM 36.7417 -89.0519 41° Northeast 499 574 39,000  Level Memphis Center
Wed 12:41:46 AM 36.8486 -88.9386 40° Northeast 499 574 39,000  Level Memphis Center
Wed 12:42:46 AM 36.9517 -88.8306 40° Northeast 499 574 39,000  Level Memphis Center
Wed 12:43:46 AM 37.0564 -88.7167 41° Northeast 499 574 39,000  Level Memphis Center
Wed 12:45:51 AM 37.2722 -88.4797 41° Northeast 503 579 39,000  Level Indianapolis Center
Wed 12:46:51 AM 37.3789 -88.3653 40° Northeast 500 575 39,000  Level Indianapolis Center
Wed 12:47:52 AM 37.4856 -88.2489 41° Northeast 501 577 39,000  Level Indianapolis Center
Wed 12:48:52 AM 37.5925 -88.1344 40° Northeast 502 578 39,000  Level Indianapolis Center
Wed 12:49:53 AM 37.6992 -88.0172 41° Northeast 503 579 39,000  Level Indianapolis Center
Wed 12:50:53 AM 37.7881 -87.9181 41° Northeast 500 575 39,000 -50 Level Indianapolis Center
Wed 12:51:54 AM 37.8950 -87.8008 41° Northeast 504 580 38,900 -694 Descending Indianapolis Center
Wed 12:52:54 AM 37.9772 -87.6122 61° Northeast 512 589 37,600 -942 Descending Indianapolis Center
Wed 12:53:55 AM 38.0306 -87.4433 68° East 515 593 37,000 -295 Descending Indianapolis Center
Wed 12:54:56 AM 38.0831 -87.2769 68° East 511 588 37,000 -744 Level Indianapolis Center
Wed 12:55:56 AM 38.1358 -87.1086 68° East 517 595 35,500 -2,479 Descending Indianapolis Center
Wed 12:56:57 AM 38.1872 -86.9406 69° East 521 600 32,000 -3,471 Descending Indianapolis Center
Wed 12:57:57 AM 38.2403 -86.7711 68° East 525 604 28,500 -3,200 Descending Indianapolis Center
Wed 12:58:57 AM 38.2925 -86.6022 68° East 517 595 25,600 -2,727 Descending Indianapolis Center
Wed 12:59:58 AM 38.3414 -86.4425 69° East 490 564 23,000 -2,479 Descending Indianapolis Center
Wed 01:00:58 AM 38.3881 -86.2894 69° East 468 539 20,600 -2,033 Descending Indianapolis Center
Wed 01:01:59 AM 38.4342 -86.1436 68° East 445 512 18,900 -1,636 Descending Indianapolis Center
Wed 01:02:59 AM 38.4792 -85.9967 69° East 442 509 17,300 -1,636 Descending Indianapolis Center
Wed 01:04:00 AM 38.5222 -85.8528 69° East 435 501 15,600 -1,636 Descending Indianapolis Center
Wed 01:05:00 AM 38.5661 -85.7108 68° East 429 494 14,000 -1,550 Descending Indianapolis Center
Wed 01:06:00 AM 38.6150 -85.5753 65° Northeast 421 484 12,500 -1,537 Descending Indianapolis Center
Wed 01:07:01 AM 38.6767 -85.4458 59° Northeast 401 461 10,900 -843 Descending Indianapolis Center
Wed 01:08:01 AM 38.7300 -85.3239 61° Northeast 392 451 10,800 -446 Descending Indianapolis Center
Wed 01:09:02 AM 38.7667 -85.2000 69° East 363 418 10,000 -694 Descending Indianapolis Center
Wed 01:10:02 AM 38.7869 -85.0839 77° East 331 381 9,400 -500 Descending Indianapolis Center
Wed 01:11:02 AM 38.8069 -84.9825 76° East 297 342 9,000 -198 Descending Indianapolis Center
Wed 01:12:03 AM 38.8264 -84.8850 76° East 284 327 9,000  Level Indianapolis Center
Wed 01:13:03 AM 38.8467 -84.7861 75° East 286 329 9,000  Level Indianapolis Center
Wed 01:14:04 AM 38.8653 -84.6875 76° East 284 327 9,000 58 Level Indianapolis Center
Wed 01:14:46 AM 38.8833 -84.6167 72° East 286 329 9,100  Climbing Cincinnati TRACON
Wed 01:15:52 AM 38.9500 -84.5667 30° Northeast 268 308 9,000 -300 Descending Cincinnati TRACON
Wed 01:16:46 AM 39.0167 -84.5667 360° North 225 259 8,500 -895 Descending Cincinnati TRACON
Wed 01:17:46 AM 39.0833 -84.5500 11° North 229 264 7,300 -737 Descending Cincinnati TRACON
Wed 01:18:40 AM 39.1333 -84.5500 360° North 225 259 7,100 -304 Descending Cincinnati TRACON
Wed 01:19:05 AM 39.1556 -84.5522 356° North 236 272 6,900 -140 Descending Indianapolis Center
Wed 01:20:06 AM 39.1622 -84.6092 279° West 181 208 6,900 126 Level Indianapolis Center
Wed 01:20:40 AM 39.1667 -84.6333 283° West 160 184 7,100 128 Climbing Cincinnati TRACON
Wed 01:21:40 AM 39.1667 -84.7000 270° West 162 186 7,100  Level Cincinnati TRACON
Wed 01:22:34 AM 39.1667 -84.7500 270° West 158 182 7,100  Level Cincinnati TRACON
Wed 01:23:34 AM 39.1833 -84.8000 293° West 160 184 7,100  Level Cincinnati TRACON
Wed 01:24:34 AM 39.1833 -84.8667 270° West 159 183 7,100 -65 Level Cincinnati TRACON
Wed 01:25:07 AM 39.1850 -84.8944 274° West 159 183 7,000 -64 Descending Indianapolis Center
Wed 01:26:08 AM 39.1894 -84.9508 276° West 157 181 7,000 -149 Level Indianapolis Center
Wed 01:27:08 AM 39.1408 -84.9506 180° South 183 211 6,700 -700 Descending Indianapolis Center
Wed 01:28:08 AM 39.0947 -84.9297 161° South 178 205 5,600 -1,091 Descending Indianapolis Center
Wed 01:29:09 AM 39.0506 -84.8997 152° Southeast 190 219 4,500 -1,047 Descending Indianapolis Center
Wed 01:29:34 AM 39.0500 -84.8667 91° East 226 260 4,100 -1,063 Descending Cincinnati TRACON
Wed 01:30:28 AM 39.0500 -84.8000 90° East 217 250 3,100 -1,316 Descending Cincinnati TRACON
Wed 01:31:28 AM 39.0500 -84.7333 90° East 167 192 1,600 -1,500 Descending Cincinnati TRACON

Login

Don't have an account? Register now (free) for customized features, flight alerts, and more!